sensor_id;sensor_type;location;lat;lon;timestamp;temperature;humidity
47350;DHT22;33088;51.982;5.872;2023-03-20T00:00:36;8.90;99.90
47350;DHT22;33088;51.982;5.872;2023-03-20T00:03:00;8.90;99.90
47350;DHT22;33088;51.982;5.872;2023-03-20T00:05:27;8.90;99.90
47350;DHT22;33088;51.982;5.872;2023-03-20T00:07:53;8.80;99.90
47350;DHT22;33088;51.982;5.872;2023-03-20T00:10:20;8.90;99.90
47350;DHT22;33088;51.982;5.872;2023-03-20T00:12:48;8.80;99.90
47350;DHT22;33088;51.982;5.872;2023-03-20T00:15:28;8.80;99.90
47350;DHT22;33088;51.982;5.872;2023-03-20T00:17:54;8.70;99.90
47350;DHT22;33088;51.982;5.872;2023-03-20T00:20:20;8.70;99.90
47350;DHT22;33088;51.982;5.872;2023-03-20T00:22:46;8.70;99.90
47350;DHT22;33088;51.982;5.872;2023-03-20T00:25:13;8.70;99.90
47350;DHT22;33088;51.982;5.872;2023-03-20T00:27:41;8.70;99.90
47350;DHT22;33088;51.982;5.872;2023-03-20T00:30:30;8.60;99.90
47350;DHT22;33088;51.982;5.872;2023-03-20T00:32:57;8.70;99.90
47350;DHT22;33088;51.982;5.872;2023-03-20T00:37:49;8.70;99.90
47350;DHT22;33088;51.982;5.872;2023-03-20T00:40:15;8.70;99.90
47350;DHT22;33088;51.982;5.872;2023-03-20T00:42:43;8.60;99.90
47350;DHT22;33088;51.982;5.872;2023-03-20T00:45:15;8.60;99.90
47350;DHT22;33088;51.982;5.872;2023-03-20T00:47:43;8.70;99.90
47350;DHT22;33088;51.982;5.872;2023-03-20T00:50:17;8.70;99.90
47350;DHT22;33088;51.982;5.872;2023-03-20T00:52:43;8.60;99.90
47350;DHT22;33088;51.982;5.872;2023-03-20T00:55:10;8.70;99.90
47350;DHT22;33088;51.982;5.872;2023-03-20T00:57:43;8.70;99.90
47350;DHT22;33088;51.982;5.872;2023-03-20T01:03:00;8.60;99.90
47350;DHT22;33088;51.982;5.872;2023-03-20T01:05:27;8.70;99.90
47350;DHT22;33088;51.982;5.872;2023-03-20T01:07:54;8.80;99.90
47350;DHT22;33088;51.982;5.872;2023-03-20T01:10:22;8.60;99.90
47350;DHT22;33088;51.982;5.872;2023-03-20T01:12:49;8.60;99.90
47350;DHT22;33088;51.982;5.872;2023-03-20T01:15:22;8.60;99.90
47350;DHT22;33088;51.982;5.872;2023-03-20T01:17:50;8.70;99.90
47350;DHT22;33088;51.982;5.872;2023-03-20T01:20:23;8.50;99.90
47350;DHT22;33088;51.982;5.872;2023-03-20T01:22:50;8.60;99.90
47350;DHT22;33088;51.982;5.872;2023-03-20T01:25:16;8.50;99.90
47350;DHT22;33088;51.982;5.872;2023-03-20T01:27:53;8.50;99.90
47350;DHT22;33088;51.982;5.872;2023-03-20T01:30:25;8.50;99.90
47350;DHT22;33088;51.982;5.872;2023-03-20T01:32:52;8.50;99.90
47350;DHT22;33088;51.982;5.872;2023-03-20T01:35:23;8.50;99.90
47350;DHT22;33088;51.982;5.872;2023-03-20T01:37:50;8.40;99.90
47350;DHT22;33088;51.982;5.872;2023-03-20T01:40:33;8.50;99.90
47350;DHT22;33088;51.982;5.872;2023-03-20T01:43:02;8.40;99.90
47350;DHT22;33088;51.982;5.872;2023-03-20T01:45:34;8.40;99.90
47350;DHT22;33088;51.982;5.872;2023-03-20T01:48:22;8.40;99.90
47350;DHT22;33088;51.982;5.872;2023-03-20T01:50:46;8.50;99.90
47350;DHT22;33088;51.982;5.872;2023-03-20T01:53:22;8.40;99.90
47350;DHT22;33088;51.982;5.872;2023-03-20T01:55:55;8.40;99.90
47350;DHT22;33088;51.982;5.872;2023-03-20T01:58:31;8.40;99.90
47350;DHT22;33088;51.982;5.872;2023-03-20T02:01:00;8.40;99.90
47350;DHT22;33088;51.982;5.872;2023-03-20T02:03:26;8.40;99.90
47350;DHT22;33088;51.982;5.872;2023-03-20T02:06:19;8.40;99.90
47350;DHT22;33088;51.982;5.872;2023-03-20T02:09:15;8.40;99.90
47350;DHT22;33088;51.982;5.872;2023-03-20T02:11:44;8.30;99.90
47350;DHT22;33088;51.982;5.872;2023-03-20T02:14:12;8.30;99.90
47350;DHT22;33088;51.982;5.872;2023-03-20T02:16:47;8.30;99.90
47350;DHT22;33088;51.982;5.872;2023-03-20T02:19:37;8.30;99.90
47350;DHT22;33088;51.982;5.872;2023-03-20T02:25:23;8.20;99.90
47350;DHT22;33088;51.982;5.872;2023-03-20T02:28:19;8.30;99.90
47350;DHT22;33088;51.982;5.872;2023-03-20T02:39:43;8.30;99.90
47350;DHT22;33088;51.982;5.872;2023-03-20T02:45:21;8.30;99.90
47350;DHT22;33088;51.982;5.872;2023-03-20T02:48:15;8.20;99.90
47350;DHT22;33088;51.982;5.872;2023-03-20T02:51:01;8.20;99.90
47350;DHT22;33088;51.982;5.872;2023-03-20T02:56:13;8.20;99.90
47350;DHT22;33088;51.982;5.872;2023-03-20T02:58:52;8.20;99.90
47350;DHT22;33088;51.982;5.872;2023-03-20T03:01:41;8.20;99.90
47350;DHT22;33088;51.982;5.872;2023-03-20T03:04:11;8.20;99.90
47350;DHT22;33088;51.982;5.872;2023-03-20T03:06:42;8.20;99.90
47350;DHT22;33088;51.982;5.872;2023-03-20T03:09:40;8.20;99.90
47350;DHT22;33088;51.982;5.872;2023-03-20T03:12:17;8.20;99.90
47350;DHT22;33088;51.982;5.872;2023-03-20T03:14:53;8.20;99.90
47350;DHT22;33088;51.982;5.872;2023-03-20T03:17:23;8.20;99.90
47350;DHT22;33088;51.982;5.872;2023-03-20T03:19:53;8.20;99.90
47350;DHT22;33088;51.982;5.872;2023-03-20T03:22:20;8.20;99.90
47350;DHT22;33088;51.982;5.872;2023-03-20T03:24:48;8.20;99.90
47350;DHT22;33088;51.982;5.872;2023-03-20T03:27:40;8.20;99.90
47350;DHT22;33088;51.982;5.872;2023-03-20T03:30:17;8.20;99.90
47350;DHT22;33088;51.982;5.872;2023-03-20T03:33:05;8.20;99.90
47350;DHT22;33088;51.982;5.872;2023-03-20T03:35:34;8.10;99.90
47350;DHT22;33088;51.982;5.872;2023-03-20T03:38:08;8.00;99.90
47350;DHT22;33088;51.982;5.872;2023-03-20T03:40:42;8.20;99.90
47350;DHT22;33088;51.982;5.872;2023-03-20T03:43:30;8.00;99.90
47350;DHT22;33088;51.982;5.872;2023-03-20T03:46:06;7.90;99.90
47350;DHT22;33088;51.982;5.872;2023-03-20T03:48:41;7.90;99.90
47350;DHT22;33088;51.982;5.872;2023-03-20T03:51:12;7.90;99.90
47350;DHT22;33088;51.982;5.872;2023-03-20T03:53:53;7.90;99.90
47350;DHT22;33088;51.982;5.872;2023-03-20T03:56:24;7.80;99.90
47350;DHT22;33088;51.982;5.872;2023-03-20T03:58:54;7.80;99.90
47350;DHT22;33088;51.982;5.872;2023-03-20T04:01:23;7.80;99.90
47350;DHT22;33088;51.982;5.872;2023-03-20T04:03:56;7.80;99.90
47350;DHT22;33088;51.982;5.872;2023-03-20T04:06:26;7.70;99.90
47350;DHT22;33088;51.982;5.872;2023-03-20T04:08:52;7.70;99.90
47350;DHT22;33088;51.982;5.872;2023-03-20T04:11:20;7.70;99.90
47350;DHT22;33088;51.982;5.872;2023-03-20T04:13:48;7.60;99.90
47350;DHT22;33088;51.982;5.872;2023-03-20T04:16:15;7.60;99.90
47350;DHT22;33088;51.982;5.872;2023-03-20T04:18:43;7.60;99.90
47350;DHT22;33088;51.982;5.872;2023-03-20T04:21:12;7.50;99.90
47350;DHT22;33088;51.982;5.872;2023-03-20T04:23:41;7.40;99.90
47350;DHT22;33088;51.982;5.872;2023-03-20T04:26:07;7.40;99.90
47350;DHT22;33088;51.982;5.872;2023-03-20T04:28:34;7.40;99.90
47350;DHT22;33088;51.982;5.872;2023-03-20T04:31:15;7.40;99.90
47350;DHT22;33088;51.982;5.872;2023-03-20T04:33:58;7.40;99.90
47350;DHT22;33088;51.982;5.872;2023-03-20T04:36:35;7.40;99.90
47350;DHT22;33088;51.982;5.872;2023-03-20T04:39:03;7.40;99.90
47350;DHT22;33088;51.982;5.872;2023-03-20T04:41:28;7.30;99.90
47350;DHT22;33088;51.982;5.872;2023-03-20T04:43:57;7.30;99.90
47350;DHT22;33088;51.982;5.872;2023-03-20T04:46:23;7.40;99.90
47350;DHT22;33088;51.982;5.872;2023-03-20T04:48:49;7.30;99.90
47350;DHT22;33088;51.982;5.872;2023-03-20T04:51:15;7.20;99.90
47350;DHT22;33088;51.982;5.872;2023-03-20T04:53:48;7.30;99.90
47350;DHT22;33088;51.982;5.872;2023-03-20T04:56:13;7.30;99.90
47350;DHT22;33088;51.982;5.872;2023-03-20T04:58:40;7.30;99.90
47350;DHT22;33088;51.982;5.872;2023-03-20T05:01:05;7.40;99.90
47350;DHT22;33088;51.982;5.872;2023-03-20T05:03:31;7.30;99.90
47350;DHT22;33088;51.982;5.872;2023-03-20T05:05:58;7.20;99.90
47350;DHT22;33088;51.982;5.872;2023-03-20T05:08:24;7.20;99.90
47350;DHT22;33088;51.982;5.872;2023-03-20T05:10:54;7.20;99.90
47350;DHT22;33088;51.982;5.872;2023-03-20T05:13:38;7.10;99.90
47350;DHT22;33088;51.982;5.872;2023-03-20T05:16:33;7.20;99.90
47350;DHT22;33088;51.982;5.872;2023-03-20T05:19:09;7.20;99.90
47350;DHT22;33088;51.982;5.872;2023-03-20T05:21:48;7.10;99.90
47350;DHT22;33088;51.982;5.872;2023-03-20T05:24:28;7.20;99.90
47350;DHT22;33088;51.982;5.872;2023-03-20T05:27:16;7.20;99.90
47350;DHT22;33088;51.982;5.872;2023-03-20T05:30:09;7.20;99.90
47350;DHT22;33088;51.982;5.872;2023-03-20T05:32:54;7.10;99.90
47350;DHT22;33088;51.982;5.872;2023-03-20T05:35:26;7.10;99.90
47350;DHT22;33088;51.982;5.872;2023-03-20T05:37:58;7.10;99.90
47350;DHT22;33088;51.982;5.872;2023-03-20T05:40:56;7.20;99.90
47350;DHT22;33088;51.982;5.872;2023-03-20T05:43:57;7.20;99.90
47350;DHT22;33088;51.982;5.872;2023-03-20T05:46:37;7.20;99.90
47350;DHT22;33088;51.982;5.872;2023-03-20T05:49:23;7.20;99.90
47350;DHT22;33088;51.982;5.872;2023-03-20T05:52:07;7.20;99.90
47350;DHT22;33088;51.982;5.872;2023-03-20T05:54:41;7.20;99.90
47350;DHT22;33088;51.982;5.872;2023-03-20T05:57:16;7.20;99.90
47350;DHT22;33088;51.982;5.872;2023-03-20T05:59:54;7.20;99.90
47350;DHT22;33088;51.982;5.872;2023-03-20T06:02:52;7.20;99.90
47350;DHT22;33088;51.982;5.872;2023-03-20T06:05:43;7.30;99.90
47350;DHT22;33088;51.982;5.872;2023-03-20T06:08:09;7.20;99.90
47350;DHT22;33088;51.982;5.872;2023-03-20T06:10:35;7.30;99.90
47350;DHT22;33088;51.982;5.872;2023-03-20T06:13:00;7.30;99.90
47350;DHT22;33088;51.982;5.872;2023-03-20T06:15:27;7.40;99.90
47350;DHT22;33088;51.982;5.872;2023-03-20T06:18:00;7.30;99.90
47350;DHT22;33088;51.982;5.872;2023-03-20T06:20:26;7.30;99.90
47350;DHT22;33088;51.982;5.872;2023-03-20T06:22:52;7.40;99.90
47350;DHT22;33088;51.982;5.872;2023-03-20T06:25:18;7.50;99.90
47350;DHT22;33088;51.982;5.872;2023-03-20T06:27:46;7.50;99.90
47350;DHT22;33088;51.982;5.872;2023-03-20T06:30:13;7.50;99.90
47350;DHT22;33088;51.982;5.872;2023-03-20T06:32:40;7.40;99.90
47350;DHT22;33088;51.982;5.872;2023-03-20T06:35:09;7.60;99.90
47350;DHT22;33088;51.982;5.872;2023-03-20T06:37:36;7.60;99.90
47350;DHT22;33088;51.982;5.872;2023-03-20T06:40:08;7.60;99.90
47350;DHT22;33088;51.982;5.872;2023-03-20T06:42:35;7.60;99.90
47350;DHT22;33088;51.982;5.872;2023-03-20T06:45:01;7.60;99.90
47350;DHT22;33088;51.982;5.872;2023-03-20T06:47:42;7.50;99.90
47350;DHT22;33088;51.982;5.872;2023-03-20T06:50:09;7.50;99.90
47350;DHT22;33088;51.982;5.872;2023-03-20T06:52:35;7.60;99.90
47350;DHT22;33088;51.982;5.872;2023-03-20T06:55:30;7.60;99.90
47350;DHT22;33088;51.982;5.872;2023-03-20T06:57:56;7.50;99.90
47350;DHT22;33088;51.982;5.872;2023-03-20T07:00:22;7.60;99.90
47350;DHT22;33088;51.982;5.872;2023-03-20T07:02:48;7.60;99.90
47350;DHT22;33088;51.982;5.872;2023-03-20T07:05:15;7.60;99.90
47350;DHT22;33088;51.982;5.872;2023-03-20T07:07:42;7.60;99.90
47350;DHT22;33088;51.982;5.872;2023-03-20T07:10:08;7.60;99.90
47350;DHT22;33088;51.982;5.872;2023-03-20T07:12:34;7.70;99.90
47350;DHT22;33088;51.982;5.872;2023-03-20T07:15:00;7.60;99.90
47350;DHT22;33088;51.982;5.872;2023-03-20T07:17:27;7.70;99.90
47350;DHT22;33088;51.982;5.872;2023-03-20T07:19:52;7.70;99.90
47350;DHT22;33088;51.982;5.872;2023-03-20T07:22:24;7.70;99.90
47350;DHT22;33088;51.982;5.872;2023-03-20T07:24:52;7.70;99.90
47350;DHT22;33088;51.982;5.872;2023-03-20T07:27:19;7.70;99.90
47350;DHT22;33088;51.982;5.872;2023-03-20T07:29:46;7.70;99.90
47350;DHT22;33088;51.982;5.872;2023-03-20T07:32:15;7.70;99.90
47350;DHT22;33088;51.982;5.872;2023-03-20T07:34:48;7.60;99.90
47350;DHT22;33088;51.982;5.872;2023-03-20T07:37:16;7.70;99.90
47350;DHT22;33088;51.982;5.872;2023-03-20T07:39:53;7.70;99.90
47350;DHT22;33088;51.982;5.872;2023-03-20T07:42:41;7.60;99.90
47350;DHT22;33088;51.982;5.872;2023-03-20T07:45:13;7.60;99.90
47350;DHT22;33088;51.982;5.872;2023-03-20T07:47:46;7.60;99.90
47350;DHT22;33088;51.982;5.872;2023-03-20T07:50:13;7.60;99.90
47350;DHT22;33088;51.982;5.872;2023-03-20T07:52:47;7.60;99.90
47350;DHT22;33088;51.982;5.872;2023-03-20T07:55:13;7.70;99.90
47350;DHT22;33088;51.982;5.872;2023-03-20T07:57:39;7.70;99.90
47350;DHT22;33088;51.982;5.872;2023-03-20T08:00:05;7.70;99.90
47350;DHT22;33088;51.982;5.872;2023-03-20T08:02:37;7.50;99.90
47350;DHT22;33088;51.982;5.872;2023-03-20T08:05:03;7.80;99.90
47350;DHT22;33088;51.982;5.872;2023-03-20T08:07:28;7.80;99.90
47350;DHT22;33088;51.982;5.872;2023-03-20T08:09:54;7.90;99.90
47350;DHT22;33088;51.982;5.872;2023-03-20T08:12:20;7.90;99.90
47350;DHT22;33088;51.982;5.872;2023-03-20T08:14:46;7.80;99.90
47350;DHT22;33088;51.982;5.872;2023-03-20T08:17:12;8.00;99.90
47350;DHT22;33088;51.982;5.872;2023-03-20T08:19:37;7.90;99.90
47350;DHT22;33088;51.982;5.872;2023-03-20T08:22:03;7.90;99.90
47350;DHT22;33088;51.982;5.872;2023-03-20T08:24:29;8.00;99.90
47350;DHT22;33088;51.982;5.872;2023-03-20T08:26:55;7.90;99.90
47350;DHT22;33088;51.982;5.872;2023-03-20T08:29:21;8.10;99.90
47350;DHT22;33088;51.982;5.872;2023-03-20T08:31:46;8.00;99.90
47350;DHT22;33088;51.982;5.872;2023-03-20T08:34:12;7.90;99.90
47350;DHT22;33088;51.982;5.872;2023-03-20T08:36:38;8.00;99.90
47350;DHT22;33088;51.982;5.872;2023-03-20T08:39:06;8.10;99.90
47350;DHT22;33088;51.982;5.872;2023-03-20T08:41:33;8.00;99.90
47350;DHT22;33088;51.982;5.872;2023-03-20T08:43:59;8.10;99.90
47350;DHT22;33088;51.982;5.872;2023-03-20T08:46:26;8.10;99.90
47350;DHT22;33088;51.982;5.872;2023-03-20T08:48:51;8.20;99.90
47350;DHT22;33088;51.982;5.872;2023-03-20T08:51:17;8.20;99.90
47350;DHT22;33088;51.982;5.872;2023-03-20T08:53:42;8.20;99.90
47350;DHT22;33088;51.982;5.872;2023-03-20T08:56:08;8.30;99.90
47350;DHT22;33088;51.982;5.872;2023-03-20T08:58:34;8.30;99.90
47350;DHT22;33088;51.982;5.872;2023-03-20T09:01:04;8.30;99.90
47350;DHT22;33088;51.982;5.872;2023-03-20T09:03:30;8.30;99.90
47350;DHT22;33088;51.982;5.872;2023-03-20T09:05:56;8.30;99.90
47350;DHT22;33088;51.982;5.872;2023-03-20T09:08:22;8.40;99.90
47350;DHT22;33088;51.982;5.872;2023-03-20T09:10:48;8.50;99.90
47350;DHT22;33088;51.982;5.872;2023-03-20T09:13:14;8.50;99.90
47350;DHT22;33088;51.982;5.872;2023-03-20T09:15:41;8.50;99.90
47350;DHT22;33088;51.982;5.872;2023-03-20T09:18:07;8.60;99.90
47350;DHT22;33088;51.982;5.872;2023-03-20T09:20:33;8.70;99.90
47350;DHT22;33088;51.982;5.872;2023-03-20T09:22:59;8.80;99.90
47350;DHT22;33088;51.982;5.872;2023-03-20T09:25:24;8.90;99.90
47350;DHT22;33088;51.982;5.872;2023-03-20T09:27:51;8.80;99.90
47350;DHT22;33088;51.982;5.872;2023-03-20T09:30:21;8.90;99.90
47350;DHT22;33088;51.982;5.872;2023-03-20T09:32:47;8.90;99.90
47350;DHT22;33088;51.982;5.872;2023-03-20T09:35:13;9.00;99.90
47350;DHT22;33088;51.982;5.872;2023-03-20T09:37:39;9.10;99.90
47350;DHT22;33088;51.982;5.872;2023-03-20T09:40:05;9.00;99.90
47350;DHT22;33088;51.982;5.872;2023-03-20T09:48:40;9.10;99.90
47350;DHT22;33088;51.982;5.872;2023-03-20T09:53:43;9.20;99.90
47350;DHT22;33088;51.982;5.872;2023-03-20T09:56:18;8.80;99.90
47350;DHT22;33088;51.982;5.872;2023-03-20T09:58:51;8.90;99.90
47350;DHT22;33088;51.982;5.872;2023-03-20T10:01:19;8.90;99.90
47350;DHT22;33088;51.982;5.872;2023-03-20T10:03:59;8.90;99.90
47350;DHT22;33088;51.982;5.872;2023-03-20T10:06:26;8.80;99.90
47350;DHT22;33088;51.982;5.872;2023-03-20T10:08:53;8.70;99.90
47350;DHT22;33088;51.982;5.872;2023-03-20T10:11:47;8.90;99.90
47350;DHT22;33088;51.982;5.872;2023-03-20T10:17:27;9.00;99.90
47350;DHT22;33088;51.982;5.872;2023-03-20T10:20:02;9.10;99.90
47350;DHT22;33088;51.982;5.872;2023-03-20T10:22:34;9.00;99.90
47350;DHT22;33088;51.982;5.872;2023-03-20T10:27:45;9.30;99.90
47350;DHT22;33088;51.982;5.872;2023-03-20T10:42:54;9.50;99.90
47350;DHT22;33088;51.982;5.872;2023-03-20T10:45:28;9.60;99.90
47350;DHT22;33088;51.982;5.872;2023-03-20T10:47:57;9.60;99.90
47350;DHT22;33088;51.982;5.872;2023-03-20T10:50:39;9.60;99.90
47350;DHT22;33088;51.982;5.872;2023-03-20T10:53:07;9.70;99.90
47350;DHT22;33088;51.982;5.872;2023-03-20T10:55:38;9.90;99.90
47350;DHT22;33088;51.982;5.872;2023-03-20T10:58:21;9.90;99.90
47350;DHT22;33088;51.982;5.872;2023-03-20T11:00:47;9.80;99.90
47350;DHT22;33088;51.982;5.872;2023-03-20T11:03:22;9.80;99.90
47350;DHT22;33088;51.982;5.872;2023-03-20T11:06:37;9.70;99.90
47350;DHT22;33088;51.982;5.872;2023-03-20T11:08:46;9.60;99.90
47350;DHT22;33088;51.982;5.872;2023-03-20T11:11:13;9.70;99.90
47350;DHT22;33088;51.982;5.872;2023-03-20T11:13:45;9.60;99.90
47350;DHT22;33088;51.982;5.872;2023-03-20T11:18:47;9.60;99.90
47350;DHT22;33088;51.982;5.872;2023-03-20T11:21:26;9.50;99.90
47350;DHT22;33088;51.982;5.872;2023-03-20T11:23:53;9.40;99.90
47350;DHT22;33088;51.982;5.872;2023-03-20T11:26:31;9.40;99.90
47350;DHT22;33088;51.982;5.872;2023-03-20T11:28:59;9.30;99.90
47350;DHT22;33088;51.982;5.872;2023-03-20T11:31:34;9.30;99.90
47350;DHT22;33088;51.982;5.872;2023-03-20T11:36:44;9.30;99.90
47350;DHT22;33088;51.982;5.872;2023-03-20T11:39:14;9.30;99.90
47350;DHT22;33088;51.982;5.872;2023-03-20T11:41:49;9.50;99.90
47350;DHT22;33088;51.982;5.872;2023-03-20T11:44:24;9.40;99.90
47350;DHT22;33088;51.982;5.872;2023-03-20T11:49:28;9.70;99.90
47350;DHT22;33088;51.982;5.872;2023-03-20T11:52:11;9.80;99.90
47350;DHT22;33088;51.982;5.872;2023-03-20T11:54:39;9.80;99.90
47350;DHT22;33088;51.982;5.872;2023-03-20T11:57:37;9.90;99.90
47350;DHT22;33088;51.982;5.872;2023-03-20T12:00:19;9.90;99.90
47350;DHT22;33088;51.982;5.872;2023-03-20T12:02:46;10.00;99.90
47350;DHT22;33088;51.982;5.872;2023-03-20T12:05:33;10.10;99.90
47350;DHT22;33088;51.982;5.872;2023-03-20T12:08:21;10.00;99.90
47350;DHT22;33088;51.982;5.872;2023-03-20T12:10:52;10.10;99.90
47350;DHT22;33088;51.982;5.872;2023-03-20T12:13:30;9.90;99.90
47350;DHT22;33088;51.982;5.872;2023-03-20T12:16:03;9.70;99.90
47350;DHT22;33088;51.982;5.872;2023-03-20T12:18:48;9.60;99.90
47350;DHT22;33088;51.982;5.872;2023-03-20T12:21:37;9.60;99.90
47350;DHT22;33088;51.982;5.872;2023-03-20T12:24:11;9.50;99.90
47350;DHT22;33088;51.982;5.872;2023-03-20T12:29:30;9.70;99.90
47350;DHT22;33088;51.982;5.872;2023-03-20T12:34:35;9.80;99.90
47350;DHT22;33088;51.982;5.872;2023-03-20T12:37:02;9.70;99.90
47350;DHT22;33088;51.982;5.872;2023-03-20T12:39:34;9.60;99.90
47350;DHT22;33088;51.982;5.872;2023-03-20T12:50:35;9.90;99.90
47350;DHT22;33088;51.982;5.872;2023-03-20T12:53:39;9.80;99.90
47350;DHT22;33088;51.982;5.872;2023-03-20T12:56:57;9.80;99.90
47350;DHT22;33088;51.982;5.872;2023-03-20T13:08:34;9.80;99.90
47350;DHT22;33088;51.982;5.872;2023-03-20T13:16:19;9.90;99.90
47350;DHT22;33088;51.982;5.872;2023-03-20T13:24:34;10.00;99.90
47350;DHT22;33088;51.982;5.872;2023-03-20T13:27:26;9.90;99.90
47350;DHT22;33088;51.982;5.872;2023-03-20T13:30:19;9.80;99.90
47350;DHT22;33088;51.982;5.872;2023-03-20T13:36:02;9.70;99.90
47350;DHT22;33088;51.982;5.872;2023-03-20T13:38:34;9.70;99.90
47350;DHT22;33088;51.982;5.872;2023-03-20T13:41:03;9.90;99.90
47350;DHT22;33088;51.982;5.872;2023-03-20T13:43:42;9.70;99.90
47350;DHT22;33088;51.982;5.872;2023-03-20T13:46:18;9.80;99.90
47350;DHT22;33088;51.982;5.872;2023-03-20T13:48:46;9.70;99.90
47350;DHT22;33088;51.982;5.872;2023-03-20T13:56:35;9.50;99.90
47350;DHT22;33088;51.982;5.872;2023-03-20T14:04:42;9.40;99.90
47350;DHT22;33088;51.982;5.872;2023-03-20T14:07:28;9.40;99.90
47350;DHT22;33088;51.982;5.872;2023-03-20T14:09:54;9.40;99.90
47350;DHT22;33088;51.982;5.872;2023-03-20T14:12:26;9.60;99.90
47350;DHT22;33088;51.982;5.872;2023-03-20T14:14:58;9.30;99.90
47350;DHT22;33088;51.982;5.872;2023-03-20T14:17:28;9.30;99.90
47350;DHT22;33088;51.982;5.872;2023-03-20T14:19:55;9.20;99.90
47350;DHT22;33088;51.982;5.872;2023-03-20T14:22:33;9.40;99.90
47350;DHT22;33088;51.982;5.872;2023-03-20T14:25:19;9.30;99.90
47350;DHT22;33088;51.982;5.872;2023-03-20T14:28:06;9.30;99.90
47350;DHT22;33088;51.982;5.872;2023-03-20T14:35:42;9.40;99.90
47350;DHT22;33088;51.982;5.872;2023-03-20T14:41:16;9.40;99.90
47350;DHT22;33088;51.982;5.872;2023-03-20T14:49:50;9.30;99.90
47350;DHT22;33088;51.982;5.872;2023-03-20T14:57:43;9.20;99.90
47350;DHT22;33088;51.982;5.872;2023-03-20T15:00:20;9.10;99.90
47350;DHT22;33088;51.982;5.872;2023-03-20T15:03:04;9.10;99.90
47350;DHT22;33088;51.982;5.872;2023-03-20T15:05:32;9.20;99.90
47350;DHT22;33088;51.982;5.872;2023-03-20T15:08:28;9.20;99.90
47350;DHT22;33088;51.982;5.872;2023-03-20T15:10:57;9.20;99.90
47350;DHT22;33088;51.982;5.872;2023-03-20T15:13:24;9.10;99.90
47350;DHT22;33088;51.982;5.872;2023-03-20T15:16:07;9.10;99.90
47350;DHT22;33088;51.982;5.872;2023-03-20T15:18:46;9.10;99.90
47350;DHT22;33088;51.982;5.872;2023-03-20T15:21:20;9.10;99.90
47350;DHT22;33088;51.982;5.872;2023-03-20T15:23:47;9.10;99.90
47350;DHT22;33088;51.982;5.872;2023-03-20T15:26:15;9.20;99.90
47350;DHT22;33088;51.982;5.872;2023-03-20T15:28:44;9.20;99.90
47350;DHT22;33088;51.982;5.872;2023-03-20T15:31:37;9.20;99.90
47350;DHT22;33088;51.982;5.872;2023-03-20T15:34:10;9.40;99.90
47350;DHT22;33088;51.982;5.872;2023-03-20T15:36:38;9.10;99.90
47350;DHT22;33088;51.982;5.872;2023-03-20T15:39:21;9.10;99.90
47350;DHT22;33088;51.982;5.872;2023-03-20T15:41:53;9.10;99.90
47350;DHT22;33088;51.982;5.872;2023-03-20T15:44:26;9.10;99.90
47350;DHT22;33088;51.982;5.872;2023-03-20T15:46:55;9.00;99.90
47350;DHT22;33088;51.982;5.872;2023-03-20T15:49:22;9.10;99.90
47350;DHT22;33088;51.982;5.872;2023-03-20T15:51:49;9.00;99.90
47350;DHT22;33088;51.982;5.872;2023-03-20T15:54:16;9.00;99.90
47350;DHT22;33088;51.982;5.872;2023-03-20T15:56:46;9.00;99.90
47350;DHT22;33088;51.982;5.872;2023-03-20T15:59:14;8.90;99.90
47350;DHT22;33088;51.982;5.872;2023-03-20T16:01:43;8.90;99.90
47350;DHT22;33088;51.982;5.872;2023-03-20T16:04:12;8.90;99.90
47350;DHT22;33088;51.982;5.872;2023-03-20T16:06:49;8.90;99.90
47350;DHT22;33088;51.982;5.872;2023-03-20T16:09:16;8.90;99.90
47350;DHT22;33088;51.982;5.872;2023-03-20T16:11:47;8.90;99.90
47350;DHT22;33088;51.982;5.872;2023-03-20T16:14:23;8.80;99.90
47350;DHT22;33088;51.982;5.872;2023-03-20T16:16:51;8.80;99.90
47350;DHT22;33088;51.982;5.872;2023-03-20T16:19:17;8.70;99.90
47350;DHT22;33088;51.982;5.872;2023-03-20T16:21:52;8.80;99.90
47350;DHT22;33088;51.982;5.872;2023-03-20T16:24:23;8.70;99.90
47350;DHT22;33088;51.982;5.872;2023-03-20T16:26:51;8.70;99.90
47350;DHT22;33088;51.982;5.872;2023-03-20T16:29:19;8.80;99.90
47350;DHT22;33088;51.982;5.872;2023-03-20T16:31:58;8.60;99.90
47350;DHT22;33088;51.982;5.872;2023-03-20T16:34:32;8.70;99.90
47350;DHT22;33088;51.982;5.872;2023-03-20T16:37:01;8.60;99.90
47350;DHT22;33088;51.982;5.872;2023-03-20T16:39:30;8.60;99.90
47350;DHT22;33088;51.982;5.872;2023-03-20T16:44:33;8.70;99.90
47350;DHT22;33088;51.982;5.872;2023-03-20T16:50:01;8.70;99.90
47350;DHT22;33088;51.982;5.872;2023-03-20T16:52:30;8.70;99.90
47350;DHT22;33088;51.982;5.872;2023-03-20T16:54:58;8.70;99.90
47350;DHT22;33088;51.982;5.872;2023-03-20T16:57:26;8.80;99.90
47350;DHT22;33088;51.982;5.872;2023-03-20T16:59:55;8.80;99.90
47350;DHT22;33088;51.982;5.872;2023-03-20T17:02:29;8.80;99.90
47350;DHT22;33088;51.982;5.872;2023-03-20T17:05:01;8.80;99.90
47350;DHT22;33088;51.982;5.872;2023-03-20T17:07:27;9.10;99.90
47350;DHT22;33088;51.982;5.872;2023-03-20T17:12:45;8.90;99.90
47350;DHT22;33088;51.982;5.872;2023-03-20T17:15:22;9.00;99.90
47350;DHT22;33088;51.982;5.872;2023-03-20T17:17:48;8.90;99.90
47350;DHT22;33088;51.982;5.872;2023-03-20T17:22:44;8.90;99.90
47350;DHT22;33088;51.982;5.872;2023-03-20T17:25:10;8.80;99.90
47350;DHT22;33088;51.982;5.872;2023-03-20T17:27:35;8.90;99.90
47350;DHT22;33088;51.982;5.872;2023-03-20T17:30:04;8.80;99.90
47350;DHT22;33088;51.982;5.872;2023-03-20T17:32:30;8.90;99.90
47350;DHT22;33088;51.982;5.872;2023-03-20T17:34:57;8.90;99.90
47350;DHT22;33088;51.982;5.872;2023-03-20T17:37:26;9.10;99.90
47350;DHT22;33088;51.982;5.872;2023-03-20T17:39:52;8.90;99.90
47350;DHT22;33088;51.982;5.872;2023-03-20T17:42:23;8.90;99.90
47350;DHT22;33088;51.982;5.872;2023-03-20T17:44:51;8.90;99.90
47350;DHT22;33088;51.982;5.872;2023-03-20T17:47:19;8.90;99.90
47350;DHT22;33088;51.982;5.872;2023-03-20T17:49:46;9.00;99.90
47350;DHT22;33088;51.982;5.872;2023-03-20T17:52:14;8.90;99.90
47350;DHT22;33088;51.982;5.872;2023-03-20T17:54:41;8.90;99.90
47350;DHT22;33088;51.982;5.872;2023-03-20T17:57:31;9.00;99.90
47350;DHT22;33088;51.982;5.872;2023-03-20T17:59:57;9.00;99.90
47350;DHT22;33088;51.982;5.872;2023-03-20T18:02:23;9.00;99.90
47350;DHT22;33088;51.982;5.872;2023-03-20T18:04:49;8.90;99.90
47350;DHT22;33088;51.982;5.872;2023-03-20T18:07:16;9.00;99.90
47350;DHT22;33088;51.982;5.872;2023-03-20T18:09:42;9.00;99.90
47350;DHT22;33088;51.982;5.872;2023-03-20T18:12:12;9.00;99.90
47350;DHT22;33088;51.982;5.872;2023-03-20T18:14:38;9.30;99.90
47350;DHT22;33088;51.982;5.872;2023-03-20T18:17:04;9.00;99.90
47350;DHT22;33088;51.982;5.872;2023-03-20T18:19:30;9.00;99.90
47350;DHT22;33088;51.982;5.872;2023-03-20T18:21:57;9.00;99.90
47350;DHT22;33088;51.982;5.872;2023-03-20T18:24:23;9.00;99.90
47350;DHT22;33088;51.982;5.872;2023-03-20T18:26:50;9.00;99.90
47350;DHT22;33088;51.982;5.872;2023-03-20T18:29:16;9.00;99.90
47350;DHT22;33088;51.982;5.872;2023-03-20T18:31:41;9.00;99.90